Barcelona, Spain

1:24 PM CEST on October 23, 2014 (GMT +0200)
Viladecans | Change Station
CLOSE
Current Station
Personal Weather Station
Location: Viladecans, CATALUñA, CATALONIA
Elevation: 100 ft
Nearby Weather Stations

Elev 100 ft 41.32 °N, 2.01 °E | Updated 5 seconds ago

Clear
Clear
72.3 °F
Feels Like 77 °F
N
0.9
Wind Variable Wind from SSE
Gusts 4.0 mph

Today
High -- | Low -- °F
--% Chance of Precip.
Yesterday
High -- | Low -- °F
Precip. -- in
8:12 AM 6:59 PM
Waning Crescent, 0% visible
Pressure 30.09 in
Visibility -9999.0 miles
Clouds
Heat Index 77 °F
Dew Point 49 °F
Humidity 43%
Rainfall 0.00 in
Snow Depth Not available.
UV Not available.
Pollen Not available.
Air Quality Not available.
Flu Activity Not available.
METAR LEBL 231100Z 21005KT 170V250 CAVOK 21/09 Q1019 NOSIG

More Conditions Fewer Conditions

Pressure 30.09 in
Visibility -9999.0 miles
Clouds
Heat Index 77 °F
Dew Point 49 °F
Humidity 43%
Rainfall 0.00 in
Snow Depth Not available.
UV Not available.
Pollen Not available.
Air Quality Not available.
Flu Activity Not available.
METAR LEBL 231100Z 21005KT 170V250 CAVOK 21/09 Q1019 NOSIG

More Conditions Fewer Conditions

10-Day Weather Forecast

Almanac

Astronomy

Oct. 23, 2014 Rise Set
Actual Time 8:12 AM CEST 6:59 PM CEST
Civil Twilight 7:44 AM CEST 7:27 PM CEST
Nautical Twilight 7:11 AM CEST 7:59 PM CEST
Astronomical Twilight 6:39 AM CEST 8:31 PM CEST
Moon 7:36 AM CEST 6:51 PM CEST
Length of Visible Light 11h 43m
Length of Day
10h 47m
Tomorrow will be 2m 34s shorter.
Waning Crescent, 0% of the Moon is Illuminated
Today
Waning Crescent
Oct 23
New
Oct 30
First Quarter
Nov 6
Full
Nov 14
Last Quarter

Yesterday's Extremes

Country Highs Country Lows

Community

WunderPhotos

Upload Photos

1,764,206 photos uploaded!

Nearby

Snow Depth

Not available.

Earthquake Activity

City Distance Mag. Time & Date
No recent earthquake activity has been reported nearby.
Minimum magnitude displayed is 2.5.

Coastal Water Temperatures

Place Temperature
No Stations Reporting

Nearby Weather Stations